Time;durP1;ratioP1;P1;durP2;ratioP2;P2;SDS_P1;SDS_P2;PMS_P1;PMS_P2;Temp;Humidity;BMP_temperature;BMP_pressure;BME280_temperature;BME280_humidity;BME280_pressure;Samples;Min_cycle;Max_cycle;Signal;HPM_P1;HPM_P2
2024/01/21 00:00:15;;;;;;;8.90;4.95;;;-0.10;99.90;;;;;;5096380;28;20129;-84
2024/01/21 00:02:41;;;;;;;10.32;5.00;;;0.00;99.90;;;;;;5113175;28;20185;-84
2024/01/21 00:05:06;;;;;;;13.35;6.25;;;-0.10;99.90;;;;;;5114457;28;20529;-83
2024/01/21 00:07:32;;;;;;;12.88;5.05;;;0.10;99.90;;;;;;5113870;28;20043;-84
2024/01/21 00:09:58;;;;;;;10.68;5.57;;;1.30;99.90;;;;;;5113008;28;20483;-83
2024/01/21 00:12:23;;;;;;;9.02;5.13;;;0.30;99.90;;;;;;5113460;28;20104;-83
2024/01/21 00:14:49;;;;;;;12.25;5.40;;;0.30;99.90;;;;;;5112893;28;20043;-83
2024/01/21 00:17:17;;;;;;;10.95;5.35;;;-0.10;99.90;;;;;;5114059;28;20051;-84
2024/01/21 00:19:42;;;;;;;10.98;4.90;;;0.10;99.90;;;;;;5113082;28;20121;-85
2024/01/21 00:22:08;;;;;;;12.45;5.72;;;0.40;99.90;;;;;;5096269;28;20044;-84
2024/01/21 00:24:33;;;;;;;11.25;4.72;;;1.30;99.90;;;;;;5112963;28;20048;-84
2024/01/21 00:26:59;;;;;;;9.52;4.65;;;1.70;99.90;;;;;;5112710;28;20031;-84
2024/01/21 00:29:25;;;;;;;11.15;4.95;;;1.20;99.90;;;;;;5095584;28;20047;-85
2024/01/21 00:31:50;;;;;;;10.48;5.53;;;0.00;99.90;;;;;;5114167;28;20040;-84
2024/01/21 00:34:16;;;;;;;11.27;4.50;;;0.70;99.90;;;;;;5112344;28;20096;-85
2024/01/21 00:36:42;;;;;;;7.53;4.88;;;0.60;99.90;;;;;;5112551;28;20043;-85
2024/01/21 00:39:08;;;;;;;9.93;4.63;;;0.20;99.90;;;;;;5114185;28;20047;-84
2024/01/21 00:41:34;;;;;;;10.10;5.85;;;1.90;99.90;;;;;;5112918;28;20118;-85
2024/01/21 00:44:00;;;;;;;10.30;5.47;;;2.00;99.90;;;;;;5113805;28;20131;-85
2024/01/21 00:46:26;;;;;;;8.80;4.88;;;0.30;99.90;;;;;;5113153;28;20056;-84
2024/01/21 00:48:51;;;;;;;13.57;5.13;;;1.50;99.90;;;;;;5113546;28;20047;-84
2024/01/21 00:51:17;;;;;;;9.73;4.90;;;1.50;99.90;;;;;;5113970;28;20035;-85
2024/01/21 00:53:44;;;;;;;10.00;4.82;;;0.30;99.90;;;;;;5113990;28;20476;-85
2024/01/21 00:56:10;;;;;;;8.13;4.43;;;0.20;99.90;;;;;;5112402;28;20055;-86
2024/01/21 00:58:36;;;;;;;9.48;5.13;;;1.60;99.90;;;;;;5114033;28;20044;-84
2024/01/21 01:01:02;;;;;;;10.95;5.53;;;1.50;99.90;;;;;;5112490;28;20054;-84
2024/01/21 01:03:27;;;;;;;11.43;5.22;;;0.30;99.90;;;;;;5112278;28;20048;-86
2024/01/21 01:05:53;;;;;;;7.50;3.88;;;0.10;99.90;;;;;;5112400;28;20047;-84
2024/01/21 01:08:19;;;;;;;9.63;4.93;;;0.30;99.90;;;;;;5112641;28;20043;-85
2024/01/21 01:10:44;;;;;;;8.40;5.03;;;0.20;99.90;;;;;;5112726;28;20044;-85
2024/01/21 01:13:10;;;;;;;9.70;4.90;;;2.10;99.90;;;;;;5095688;28;20506;-85
2024/01/21 01:15:37;;;;;;;9.27;5.20;;;0.90;99.90;;;;;;5099106;28;20039;-83
2024/01/21 01:18:02;;;;;;;11.05;6.18;;;-0.10;99.90;;;;;;5096078;28;20130;-85
2024/01/21 01:20:28;;;;;;;9.82;6.10;;;0.20;99.90;;;;;;5112462;28;20127;-85
2024/01/21 01:22:54;;;;;;;9.95;6.15;;;0.80;99.90;;;;;;5112487;28;20202;-85
2024/01/21 01:25:19;;;;;;;11.85;6.43;;;0.60;99.90;;;;;;5112202;28;20059;-85
2024/01/21 01:27:45;;;;;;;12.23;6.72;;;0.10;99.90;;;;;;5112220;28;20127;-85
2024/01/21 01:30:11;;;;;;;12.07;5.70;;;1.70;99.90;;;;;;5113512;28;20035;-85
2024/01/21 01:32:37;;;;;;;10.82;5.85;;;0.20;99.90;;;;;;5111497;28;20483;-85
2024/01/21 01:35:04;;;;;;;9.18;5.30;;;0.00;99.90;;;;;;5095445;28;20040;-86
2024/01/21 01:37:30;;;;;;;12.68;5.70;;;0.20;99.90;;;;;;5112239;28;20503;-85
2024/01/21 01:39:56;;;;;;;13.73;6.63;;;0.20;99.90;;;;;;5113485;28;20086;-85
2024/01/21 01:42:22;;;;;;;9.88;5.70;;;0.10;99.90;;;;;;5112093;28;20044;-86
2024/01/21 01:44:47;;;;;;;12.63;6.60;;;1.10;99.90;;;;;;5111858;28;20046;-85
2024/01/21 01:47:13;;;;;;;8.90;5.40;;;0.10;99.90;;;;;;5111970;28;20039;-84
2024/01/21 01:49:42;;;;;;;12.23;5.63;;;0.10;99.90;;;;;;5113081;28;20145;-85
2024/01/21 01:52:10;;;;;;;11.38;5.53;;;0.80;99.90;;;;;;5111781;28;20047;-86
2024/01/21 01:54:38;;;;;;;10.98;6.22;;;0.00;99.90;;;;;;5111916;28;20047;-85
2024/01/21 01:57:07;;;;;;;10.45;5.75;;;0.20;99.90;;;;;;5111778;28;20155;-85
2024/01/21 01:59:34;;;;;;;11.23;5.75;;;0.10;99.90;;;;;;5111972;28;20109;-86
2024/01/21 02:02:00;;;;;;;8.25;4.78;;;0.30;99.90;;;;;;5111955;28;20062;-85
2024/01/21 02:04:26;;;;;;;12.45;5.50;;;0.00;99.90;;;;;;5111687;28;20138;-86
2024/01/21 02:06:52;;;;;;;11.40;5.45;;;1.60;99.90;;;;;;5112897;28;20042;-85
2024/01/21 02:09:18;;;;;;;8.52;5.05;;;0.30;99.90;;;;;;5111506;28;20039;-84
2024/01/21 02:11:44;;;;;;;11.63;5.32;;;0.50;99.90;;;;;;5112816;28;20118;-84
2024/01/21 02:14:10;;;;;;;11.45;5.65;;;1.30;99.90;;;;;;5113125;28;20068;-84
2024/01/21 02:16:36;;;;;;;12.40;5.72;;;0.20;99.90;;;;;;5111500;28;20050;-86
2024/01/21 02:19:06;;;;;;;10.65;4.75;;;0.10;99.90;;;;;;5112783;28;20130;-85
2024/01/21 02:21:32;;;;;;;8.48;4.35;;;2.10;99.90;;;;;;5112828;28;20043;-84
2024/01/21 02:23:57;;;;;;;11.35;5.20;;;0.30;99.90;;;;;;5111573;28;20112;-86
2024/01/21 02:26:23;;;;;;;8.32;4.90;;;0.10;99.90;;;;;;5111092;28;20048;-85
2024/01/21 02:28:49;;;;;;;7.53;4.25;;;0.80;99.90;;;;;;5111567;28;20472;-84
2024/01/21 02:31:14;;;;;;;8.32;4.38;;;0.60;99.90;;;;;;5114804;28;20055;-84
2024/01/21 02:33:40;;;;;;;9.15;4.50;;;1.50;99.90;;;;;;5116389;28;20173;-85
2024/01/21 02:36:06;;;;;;;9.05;4.80;;;0.20;99.90;;;;;;5115231;28;20055;-85
2024/01/21 02:38:31;;;;;;;7.57;4.40;;;0.40;99.90;;;;;;5098199;28;20070;-85
2024/01/21 02:40:57;;;;;;;8.20;4.47;;;0.20;99.90;;;;;;5115039;28;20051;-85
2024/01/21 02:43:23;;;;;;;9.43;4.85;;;-0.20;99.90;;;;;;5114835;28;20513;-84
2024/01/21 02:45:48;;;;;;;8.85;4.57;;;0.20;99.90;;;;;;5116272;28;20141;-85
2024/01/21 02:48:14;;;;;;;10.10;4.40;;;1.60;99.90;;;;;;5114869;28;20040;-85
2024/01/21 02:50:40;;;;;;;9.45;4.82;;;0.40;99.90;;;;;;5114813;28;20039;-84
2024/01/21 02:53:05;;;;;;;10.05;4.53;;;1.00;99.90;;;;;;5114722;28;20052;-85
2024/01/21 02:55:31;;;;;;;10.82;4.95;;;0.30;99.90;;;;;;5114670;28;20062;-85
2024/01/21 02:57:57;;;;;;;7.25;3.90;;;0.40;99.90;;;;;;5114750;28;20039;-85
2024/01/21 03:00:22;;;;;;;8.02;4.38;;;0.90;99.90;;;;;;5097236;28;20042;-85
2024/01/21 03:02:49;;;;;;;6.35;3.75;;;0.20;99.90;;;;;;5097616;28;20396;-84
2024/01/21 03:05:15;;;;;;;7.20;3.97;;;0.20;99.90;;;;;;5114149;28;20044;-84
2024/01/21 03:07:41;;;;;;;9.55;4.07;;;0.40;99.90;;;;;;5114805;28;20036;-85
2024/01/21 03:10:07;;;;;;;8.57;3.80;;;1.40;99.90;;;;;;5115759;27;20123;-85
2024/01/21 03:12:35;;;;;;;9.05;4.07;;;0.90;99.90;;;;;;5097761;28;20108;-85
2024/01/21 03:15:01;;;;;;;9.73;4.20;;;1.40;99.90;;;;;;5114542;28;20047;-85
2024/01/21 03:17:27;;;;;;;9.20;3.13;;;0.40;99.90;;;;;;5113887;28;20399;-85
2024/01/21 03:19:52;;;;;;;7.45;3.78;;;0.40;99.90;;;;;;5113862;28;20048;-85
2024/01/21 03:22:18;;;;;;;8.15;3.78;;;0.90;99.90;;;;;;5114099;28;20047;-85
2024/01/21 03:24:44;;;;;;;9.98;4.40;;;-0.40;99.90;;;;;;5115095;28;20040;-86
2024/01/21 03:27:09;;;;;;;7.55;3.58;;;0.30;99.90;;;;;;5113609;28;20476;-85
2024/01/21 03:29:35;;;;;;;7.72;3.30;;;0.60;99.90;;;;;;5114180;28;20100;-84
2024/01/21 03:32:01;;;;;;;6.93;3.42;;;1.10;99.90;;;;;;5114921;28;20043;-84
2024/01/21 03:34:26;;;;;;;7.43;3.50;;;0.10;99.90;;;;;;5115237;28;20046;-84
2024/01/21 03:36:52;;;;;;;5.63;2.90;;;1.20;99.90;;;;;;5114647;28;20039;-85
2024/01/21 03:39:18;;;;;;;8.07;3.92;;;0.00;99.90;;;;;;5114091;28;20103;-85
2024/01/21 03:41:44;;;;;;;7.10;2.92;;;1.10;99.90;;;;;;5096454;28;20076;-85
2024/01/21 03:44:09;;;;;;;5.40;2.97;;;1.20;99.90;;;;;;5113950;28;20408;-87
2024/01/21 03:46:35;;;;;;;4.65;2.20;;;0.70;99.90;;;;;;5115516;28;20043;-85
2024/01/21 03:49:01;;;;;;;6.00;3.22;;;2.20;99.90;;;;;;5114818;28;20035;-85
2024/01/21 03:51:26;;;;;;;5.25;2.80;;;0.20;99.90;;;;;;5096757;28;20400;-85
2024/01/21 03:53:52;;;;;;;6.40;2.47;;;1.10;99.90;;;;;;5113543;28;20503;-85
2024/01/21 03:56:18;;;;;;;4.63;2.25;;;0.00;99.90;;;;;;5113011;28;20132;-85
2024/01/21 03:58:44;;;;;;;5.10;2.17;;;1.30;99.90;;;;;;5114431;28;20551;-85
2024/01/21 04:01:10;;;;;;;6.25;2.20;;;0.20;99.90;;;;;;5113602;28;20039;-85
2024/01/21 04:03:36;;;;;;;5.65;2.38;;;0.20;99.90;;;;;;5113650;28;20040;-85
2024/01/21 04:06:02;;;;;;;4.03;2.10;;;0.70;99.90;;;;;;5114806;28;20433;-85
2024/01/21 04:08:27;;;;;;;4.15;2.00;;;0.30;99.90;;;;;;5114073;28;20032;-86
2024/01/21 04:10:54;;;;;;;4.63;2.00;;;0.20;99.90;;;;;;5112902;28;20130;-85
2024/01/21 04:13:20;;;;;;;5.10;1.85;;;1.40;99.90;;;;;;5113158;28;20054;-84
2024/01/21 04:15:46;;;;;;;4.32;1.85;;;1.30;99.90;;;;;;5113405;28;20463;-85
2024/01/21 04:18:12;;;;;;;4.38;1.83;;;0.60;99.90;;;;;;5114507;28;20138;-85
2024/01/21 04:20:38;;;;;;;4.88;2.25;;;-1.00;99.90;;;;;;5096057;28;20127;-86
2024/01/21 04:23:03;;;;;;;3.38;1.65;;;1.80;99.90;;;;;;5112933;28;20479;-85
2024/01/21 04:25:29;;;;;;;3.67;1.65;;;1.90;99.90;;;;;;5112896;28;20052;-85
2024/01/21 04:27:55;;;;;;;3.72;1.80;;;1.70;99.90;;;;;;5112588;28;20048;-85
2024/01/21 04:30:20;;;;;;;3.15;1.10;;;-0.20;99.90;;;;;;5112946;28;20043;-85
2024/01/21 04:32:46;;;;;;;3.20;1.30;;;0.20;99.90;;;;;;5112492;28;20038;-84
2024/01/21 04:35:12;;;;;;;3.70;1.98;;;0.30;99.90;;;;;;5095992;28;20048;-85
2024/01/21 04:37:37;;;;;;;6.15;1.88;;;1.30;99.90;;;;;;5112752;28;20043;-85
2024/01/21 04:40:04;;;;;;;3.50;1.40;;;1.20;99.90;;;;;;5112672;28;20127;-84
2024/01/21 04:42:29;;;;;;;3.90;1.67;;;0.40;99.90;;;;;;5112375;28;20051;-85
2024/01/21 04:44:55;;;;;;;4.80;1.33;;;0.50;99.90;;;;;;5113669;28;20411;-85
2024/01/21 04:47:21;;;;;;;3.83;1.50;;;1.50;99.90;;;;;;5096435;28;20184;-85
2024/01/21 04:49:46;;;;;;;4.60;1.60;;;0.30;99.90;;;;;;5113846;28;20052;-84
2024/01/21 04:52:12;;;;;;;4.68;1.63;;;1.00;99.90;;;;;;5113537;28;20039;-85
2024/01/21 04:54:38;;;;;;;3.67;1.77;;;0.10;99.90;;;;;;5095299;28;20408;-85
2024/01/21 04:57:04;;;;;;;2.08;1.23;;;1.70;99.90;;;;;;5112040;28;20494;-86
2024/01/21 04:59:29;;;;;;;3.33;1.27;;;0.40;99.90;;;;;;5113786;28;20134;-85
2024/01/21 05:01:55;;;;;;;3.80;1.40;;;0.40;99.90;;;;;;5113816;28;20043;-84
2024/01/21 05:04:21;;;;;;;2.40;1.00;;;1.80;99.90;;;;;;5112203;28;20054;-84
2024/01/21 05:06:46;;;;;;;7.22;1.40;;;0.60;99.90;;;;;;5112063;28;20043;-85
2024/01/21 05:09:12;;;;;;;3.70;1.10;;;1.70;99.90;;;;;;5111807;28;20044;-85
2024/01/21 05:11:38;;;;;;;2.60;1.10;;;0.70;99.90;;;;;;5113659;28;20046;-85
2024/01/21 05:14:04;;;;;;;3.65;1.58;;;1.50;99.90;;;;;;5111945;28;20075;-84
2024/01/21 05:16:29;;;;;;;2.90;1.13;;;0.80;99.90;;;;;;5111660;28;20046;-86
2024/01/21 05:18:56;;;;;;;2.88;1.10;;;1.70;99.90;;;;;;5095308;28;20055;-85
2024/01/21 05:21:22;;;;;;;3.55;1.20;;;0.70;99.90;;;;;;5113659;28;20066;-84
2024/01/21 05:23:50;;;;;;;3.38;1.40;;;0.80;99.90;;;;;;5112359;28;20442;-85
2024/01/21 05:26:15;;;;;;;3.55;1.00;;;0.80;99.90;;;;;;5111570;28;20135;-84
2024/01/21 05:28:41;;;;;;;3.63;1.38;;;0.70;99.90;;;;;;5112187;28;20079;-84
2024/01/21 05:31:07;;;;;;;2.95;1.30;;;1.80;99.90;;;;;;5113332;28;20429;-84
2024/01/21 05:33:33;;;;;;;4.90;1.30;;;1.10;99.90;;;;;;5112003;28;20420;-84
2024/01/21 05:35:59;;;;;;;2.17;1.25;;;0.80;99.90;;;;;;5111726;28;20123;-85
2024/01/21 05:38:25;;;;;;;2.30;1.30;;;0.20;99.90;;;;;;5111535;28;20089;-85
2024/01/21 05:40:50;;;;;;;3.90;1.48;;;0.60;99.90;;;;;;5113299;28;20145;-84
2024/01/21 05:43:16;;;;;;;3.42;1.27;;;0.80;99.90;;;;;;5095132;28;20040;-85
2024/01/21 05:45:42;;;;;;;3.83;1.63;;;2.00;99.90;;;;;;5112091;28;20051;-84
2024/01/21 05:48:07;;;;;;;3.40;1.30;;;1.10;99.90;;;;;;5111176;28;20050;-85
2024/01/21 05:50:33;;;;;;;3.10;1.30;;;0.80;99.90;;;;;;5113296;28;20035;-85
2024/01/21 05:52:59;;;;;;;2.90;1.35;;;2.20;99.90;;;;;;5094851;28;20039;-85
2024/01/21 05:55:24;;;;;;;3.55;1.30;;;1.60;99.90;;;;;;5112171;28;20143;-84
2024/01/21 05:57:50;;;;;;;4.63;1.95;;;0.90;99.90;;;;;;5112689;28;20040;-84
2024/01/21 06:00:16;;;;;;;3.83;1.60;;;2.30;99.90;;;;;;5094921;28;20048;-84
2024/01/21 06:02:42;;;;;;;3.40;1.33;;;1.10;99.90;;;;;;5094701;28;20441;-84
2024/01/21 06:05:08;;;;;;;3.08;1.70;;;2.30;99.90;;;;;;5114867;28;20043;-84
2024/01/21 06:07:34;;;;;;;2.95;1.48;;;1.00;99.90;;;;;;5116945;28;20092;-84
2024/01/21 06:09:59;;;;;;;3.00;1.67;;;2.50;99.90;;;;;;5123304;27;20081;-84
2024/01/21 06:12:25;;;;;;;4.63;1.52;;;0.90;99.90;;;;;;5116946;28;20100;-84
2024/01/21 06:14:51;;;;;;;3.08;1.50;;;1.00;99.90;;;;;;5116700;28;20082;-84
2024/01/21 06:17:16;;;;;;;4.68;1.92;;;2.30;99.90;;;;;;5115422;28;20035;-84
2024/01/21 06:19:42;;;;;;;2.47;1.48;;;2.30;99.90;;;;;;5114959;28;20052;-83
2024/01/21 06:22:08;;;;;;;3.75;1.55;;;1.80;99.90;;;;;;5098456;28;20480;-85
2024/01/21 06:24:37;;;;;;;3.25;1.42;;;1.40;99.90;;;;;;5116552;28;20043;-84
2024/01/21 06:27:03;;;;;;;6.63;1.73;;;1.10;99.90;;;;;;5115166;28;20067;-84
2024/01/21 06:29:29;;;;;;;3.65;1.65;;;1.30;99.90;;;;;;5115817;28;20036;-84
2024/01/21 06:31:55;;;;;;;6.53;3.08;;;1.50;99.90;;;;;;5115451;28;20451;-84
2024/01/21 06:34:21;;;;;;;4.28;1.80;;;1.20;99.90;;;;;;5115110;28;20040;-84
2024/01/21 06:36:47;;;;;;;3.17;1.77;;;1.20;99.90;;;;;;5116218;28;20088;-84
2024/01/21 06:39:12;;;;;;;4.93;1.98;;;1.10;99.90;;;;;;5115143;28;20079;-84
2024/01/21 06:41:38;;;;;;;3.13;1.52;;;1.30;99.90;;;;;;5114384;28;20420;-84
2024/01/21 06:44:04;;;;;;;3.70;1.95;;;1.30;99.90;;;;;;5115962;28;20135;-84
2024/01/21 06:46:30;;;;;;;4.05;2.22;;;1.20;99.90;;;;;;5115081;28;20050;-84
2024/01/21 06:48:55;;;;;;;7.85;2.63;;;1.00;99.90;;;;;;5115114;28;20051;-84
2024/01/21 06:51:31;;;;;;;7.28;2.15;;;1.10;99.90;;;;;;5097522;28;20537;-84
2024/01/21 06:53:59;;;;;;;4.80;2.55;;;2.20;99.90;;;;;;5114567;28;20131;-84
2024/01/21 06:56:25;;;;;;;7.32;2.63;;;2.10;99.90;;;;;;5114945;28;20116;-84
2024/01/21 06:58:51;;;;;;;6.38;2.63;;;2.50;99.90;;;;;;5116023;28;20039;-84
2024/01/21 07:01:17;;;;;;;5.40;2.65;;;1.70;99.90;;;;;;5114535;28;20054;-84
2024/01/21 07:03:43;;;;;;;4.68;2.33;;;1.20;99.90;;;;;;5114522;28;20086;-85
2024/01/21 07:06:09;;;;;;;5.43;2.28;;;1.10;99.90;;;;;;5114867;28;20047;-84
2024/01/21 07:08:35;;;;;;;4.68;2.63;;;2.30;99.90;;;;;;5114611;28;20416;-84
2024/01/21 07:11:00;;;;;;;7.05;2.58;;;2.60;99.90;;;;;;5114499;28;20428;-84
2024/01/21 07:13:26;;;;;;;5.22;2.83;;;1.10;99.90;;;;;;5096729;28;20036;-85
2024/01/21 07:15:53;;;;;;;5.50;2.63;;;1.90;99.90;;;;;;5115285;28;20426;-84
2024/01/21 07:18:18;;;;;;;6.90;2.50;;;1.40;99.90;;;;;;5113760;28;20063;-84
2024/01/21 07:20:44;;;;;;;6.13;3.08;;;1.30;99.90;;;;;;5115722;28;20048;-84
2024/01/21 07:23:10;;;;;;;6.68;3.08;;;2.30;99.90;;;;;;5114195;28;20067;-84
2024/01/21 07:25:35;;;;;;;7.80;2.92;;;2.20;99.90;;;;;;5113621;28;20039;-85
2024/01/21 07:28:02;;;;;;;8.23;3.08;;;1.30;99.90;;;;;;5115408;28;20046;-84
2024/01/21 07:30:27;;;;;;;4.85;2.58;;;1.20;99.90;;;;;;5114118;28;20047;-86
2024/01/21 07:32:53;;;;;;;5.40;2.70;;;2.80;99.90;;;;;;5114054;28;20047;-84
2024/01/21 07:35:18;;;;;;;6.75;2.85;;;1.30;99.90;;;;;;5114075;28;20054;-84
2024/01/21 07:37:44;;;;;;;5.43;2.47;;;1.10;99.90;;;;;;5114180;28;20075;-85
2024/01/21 07:40:10;;;;;;;5.93;3.20;;;2.30;99.90;;;;;;5113594;28;20039;-85
2024/01/21 07:42:36;;;;;;;6.28;3.20;;;1.20;99.90;;;;;;5115465;27;20053;-84
2024/01/21 07:45:02;;;;;;;5.55;2.75;;;1.10;99.90;;;;;;5113805;28;20138;-84
2024/01/21 07:47:27;;;;;;;6.47;3.38;;;1.30;99.90;;;;;;5113512;28;20044;-84
2024/01/21 07:49:53;;;;;;;7.50;3.03;;;1.20;99.90;;;;;;5114958;28;20046;-84
2024/01/21 07:52:19;;;;;;;5.57;2.88;;;1.80;99.90;;;;;;5112799;28;20123;-83
2024/01/21 07:54:44;;;;;;;6.78;3.28;;;2.00;99.90;;;;;;5113946;28;20377;-84
2024/01/21 07:57:10;;;;;;;5.63;3.42;;;1.10;99.90;;;;;;5113628;28;20079;-84
2024/01/21 07:59:36;;;;;;;5.05;2.90;;;2.50;99.90;;;;;;5114458;27;20043;-84
2024/01/21 08:02:02;;;;;;;8.70;3.67;;;2.20;99.90;;;;;;5113506;28;20035;-84
2024/01/21 08:04:27;;;;;;;5.60;3.08;;;1.30;99.90;;;;;;5113223;28;20050;-84
2024/01/21 08:06:53;;;;;;;7.63;3.38;;;2.10;99.90;;;;;;5114989;28;20507;-84
2024/01/21 08:09:19;;;;;;;5.70;2.90;;;2.30;99.90;;;;;;5113392;28;20448;-84
2024/01/21 08:11:44;;;;;;;7.80;3.25;;;1.30;99.90;;;;;;5113777;28;20208;-84
2024/01/21 08:14:11;;;;;;;5.47;2.95;;;2.30;99.90;;;;;;5113179;28;20101;-84
2024/01/21 08:16:37;;;;;;;7.22;2.80;;;2.20;99.90;;;;;;5113201;28;20047;-84
2024/01/21 08:19:03;;;;;;;7.30;3.22;;;2.60;99.90;;;;;;5112989;28;20054;-84
2024/01/21 08:21:30;;;;;;;5.82;3.03;;;2.20;99.90;;;;;;5112714;28;20044;-84
2024/01/21 08:23:55;;;;;;;6.25;3.03;;;1.20;99.90;;;;;;5112820;28;20043;-84
2024/01/21 08:26:21;;;;;;;6.85;3.33;;;1.30;99.90;;;;;;5112727;28;20138;-87
2024/01/21 08:28:47;;;;;;;6.22;3.35;;;2.80;99.90;;;;;;5094706;28;20044;-84
2024/01/21 08:31:14;;;;;;;8.75;3.60;;;1.20;99.90;;;;;;5112972;28;20395;-85
2024/01/21 08:33:40;;;;;;;6.57;2.75;;;1.80;99.90;;;;;;5113211;28;20484;-86
2024/01/21 08:36:06;;;;;;;7.63;3.28;;;2.40;99.90;;;;;;5112491;28;20044;-86
2024/01/21 08:38:32;;;;;;;6.32;3.13;;;1.40;99.90;;;;;;5112320;28;20088;-86
2024/01/21 08:40:57;;;;;;;6.15;3.03;;;2.70;99.90;;;;;;5112562;28;20043;-84
2024/01/21 08:43:23;;;;;;;9.35;3.20;;;1.30;99.90;;;;;;5122622;27;20058;-86
2024/01/21 08:45:49;;;;;;;8.00;3.95;;;2.60;99.90;;;;;;5095480;28;20044;-85
2024/01/21 08:48:14;;;;;;;7.25;3.25;;;2.20;99.90;;;;;;5095518;28;20046;-86
2024/01/21 08:50:40;;;;;;;6.90;3.42;;;2.30;99.90;;;;;;5112156;28;20054;-86
2024/01/21 08:53:06;;;;;;;6.85;3.03;;;2.40;99.90;;;;;;5112187;28;20043;-86
2024/01/21 08:55:32;;;;;;;6.70;3.10;;;3.10;99.90;;;;;;5123789;27;20480;-86
2024/01/21 08:57:57;;;;;;;7.63;3.72;;;1.60;99.90;;;;;;5128443;27;20066;-85
2024/01/21 09:00:23;;;;;;;5.88;3.38;;;2.60;99.90;;;;;;5111516;28;20447;-85
2024/01/21 09:02:49;;;;;;;6.03;2.97;;;1.90;99.90;;;;;;5112286;28;20093;-85
2024/01/21 09:05:14;;;;;;;6.25;3.50;;;1.60;99.90;;;;;;5113767;28;20437;-84
2024/01/21 09:07:40;;;;;;;5.82;3.22;;;1.40;99.90;;;;;;5112829;28;20437;-85
2024/01/21 09:10:08;;;;;;;7.57;3.65;;;3.60;99.90;;;;;;5094588;28;20044;-85
2024/01/21 09:12:34;;;;;;;7.47;3.35;;;1.70;99.90;;;;;;5112580;28;20396;-85
2024/01/21 09:15:00;;;;;;;7.00;4.00;;;1.70;99.90;;;;;;5095221;28;20054;-85
2024/01/21 09:17:26;;;;;;;8.70;3.45;;;2.70;99.90;;;;;;5113492;28;20044;-85
2024/01/21 09:19:51;;;;;;;5.75;3.47;;;1.80;99.90;;;;;;5113333;28;20040;-86
2024/01/21 09:22:17;;;;;;;6.55;3.65;;;2.40;99.90;;;;;;5113384;28;20605;-85
2024/01/21 09:24:43;;;;;;;7.72;3.72;;;2.40;99.90;;;;;;5110856;28;20134;-86
2024/01/21 09:27:08;;;;;;;8.38;3.78;;;0.60;99.90;;;;;;5111997;28;20044;-86
2024/01/21 09:29:34;;;;;;;7.43;3.78;;;1.50;99.90;;;;;;5095056;28;21803;-85
2024/01/21 09:32:00;;;;;;;9.73;3.95;;;3.70;99.90;;;;;;5112073;28;20492;-85
2024/01/21 09:34:25;;;;;;;8.88;4.10;;;0.90;99.90;;;;;;5113202;28;20384;-85
2024/01/21 09:36:52;;;;;;;6.53;3.60;;;3.20;99.90;;;;;;5112312;28;20054;-86
2024/01/21 09:39:18;;;;;;;6.72;3.80;;;3.70;99.90;;;;;;5114090;28;20480;-85
2024/01/21 09:41:49;;;;;;;6.95;3.85;;;2.10;99.90;;;;;;5117806;28;20031;-85
2024/01/21 09:44:26;;;;;;;6.85;3.40;;;3.30;99.90;;;;;;5116014;28;20403;-85
2024/01/21 09:46:59;;;;;;;5.88;3.67;;;2.30;99.90;;;;;;5095854;28;20056;-85
2024/01/21 09:49:25;;;;;;;6.68;3.90;;;3.00;99.90;;;;;;5097217;28;20093;-85
2024/01/21 09:51:52;;;;;;;11.38;3.78;;;3.20;99.90;;;;;;5096923;28;20089;-85
2024/01/21 09:54:20;;;;;;;7.78;3.63;;;2.40;99.90;;;;;;5112899;28;20040;-85
2024/01/21 09:56:46;;;;;;;6.60;3.83;;;1.60;99.90;;;;;;5112654;28;20043;-85
2024/01/21 09:59:13;;;;;;;7.13;4.00;;;3.50;99.90;;;;;;5106037;28;20118;-85
2024/01/21 10:01:40;;;;;;;7.13;3.78;;;2.00;99.90;;;;;;5098509;28;20039;-86
2024/01/21 10:04:10;;;;;;;8.13;4.13;;;1.70;99.90;;;;;;5116117;28;20044;-85
2024/01/21 10:06:36;;;;;;;8.90;4.32;;;1.70;99.90;;;;;;5099085;28;20094;-86
2024/01/21 10:09:19;;;;;;;8.55;4.25;;;3.00;99.90;;;;;;5115569;28;20043;-86
2024/01/21 10:11:53;;;;;;;10.13;3.95;;;2.70;99.90;;;;;;5098942;28;20108;-86
2024/01/21 10:14:19;;;;;;;8.38;4.53;;;2.70;99.90;;;;;;5115638;28;20479;-86
2024/01/21 10:16:45;;;;;;;9.43;4.60;;;1.90;99.90;;;;;;5116995;28;20044;-85
2024/01/21 10:19:14;;;;;;;7.63;4.53;;;2.90;99.90;;;;;;5115454;28;20400;-86
2024/01/21 10:21:40;;;;;;;7.75;3.80;;;4.30;99.90;;;;;;5098923;28;20047;-86
2024/01/21 10:24:08;;;;;;;8.40;3.97;;;4.00;99.90;;;;;;5115309;28;20123;-85
2024/01/21 10:26:36;;;;;;;7.82;4.28;;;2.90;99.90;;;;;;5116479;28;20388;-86
2024/01/21 10:29:02;;;;;;;7.60;4.15;;;3.50;99.90;;;;;;5115735;28;20032;-86
2024/01/21 10:31:28;;;;;;;11.13;4.90;;;2.70;99.90;;;;;;5116350;28;20078;-85
2024/01/21 10:33:54;;;;;;;8.52;4.72;;;2.50;99.90;;;;;;5115597;28;20078;-86
2024/01/21 10:36:21;;;;;;;8.43;4.70;;;4.90;99.90;;;;;;5116263;28;20084;-86
2024/01/21 10:38:51;;;;;;;8.45;5.20;;;3.10;99.90;;;;;;5115209;28;20044;-85
2024/01/21 10:41:29;;;;;;;8.10;4.97;;;3.10;99.90;;;;;;5115253;28;20127;-85
2024/01/21 10:43:59;;;;;;;9.32;4.88;;;4.10;99.90;;;;;;5116619;28;20086;-86
2024/01/21 10:46:25;;;;;;;10.63;4.63;;;3.60;99.90;;;;;;5098203;28;20055;-85
2024/01/21 10:48:58;;;;;;;10.52;5.30;;;2.00;99.90;;;;;;5115128;28;20123;-86
2024/01/21 10:51:25;;;;;;;9.60;4.90;;;4.50;99.90;;;;;;5113863;28;20046;-85
2024/01/21 10:53:51;;;;;;;10.05;4.68;;;2.10;99.90;;;;;;5115207;28;20393;-85
2024/01/21 10:56:19;;;;;;;7.93;4.90;;;4.50;99.90;;;;;;5114723;28;20172;-86
2024/01/21 10:58:49;;;;;;;9.27;5.15;;;3.70;99.90;;;;;;5114477;28;20464;-85
2024/01/21 11:01:16;;;;;;;9.82;4.40;;;4.10;99.90;;;;;;5114720;28;20140;-85
2024/01/21 11:03:43;;;;;;;9.27;5.10;;;3.60;99.90;;;;;;5114974;28;20388;-86
2024/01/21 11:06:10;;;;;;;9.18;4.60;;;3.70;99.90;;;;;;5114929;28;20047;-85
2024/01/21 11:08:40;;;;;;;9.60;5.18;;;4.60;99.90;;;;;;5114972;28;20075;-84
2024/01/21 11:11:08;;;;;;;9.50;5.22;;;5.00;99.90;;;;;;5114092;28;20043;-85
2024/01/21 11:13:44;;;;;;;10.50;5.78;;;4.40;99.90;;;;;;5113914;28;20054;-85
2024/01/21 11:16:12;;;;;;;9.88;4.57;;;3.40;99.90;;;;;;5115980;28;20105;-85
2024/01/21 11:18:38;;;;;;;10.50;4.85;;;5.10;99.90;;;;;;5113600;28;20051;-85
2024/01/21 11:21:03;;;;;;;10.40;5.32;;;4.70;99.90;;;;;;5114429;28;20050;-85
2024/01/21 11:23:29;;;;;;;9.23;5.28;;;4.00;99.90;;;;;;5098256;27;20046;-86
2024/01/21 11:25:57;;;;;;;12.10;6.20;;;4.80;99.90;;;;;;5097311;28;20075;-85
2024/01/21 11:28:27;;;;;;;9.90;5.30;;;4.20;99.90;;;;;;5114099;28;20096;-86
2024/01/21 11:31:02;;;;;;;9.90;5.13;;;4.30;99.90;;;;;;5097296;28;20047;-85
2024/01/21 11:33:30;;;;;;;8.02;4.55;;;3.50;99.90;;;;;;5114156;28;20105;-85
2024/01/21 11:35:58;;;;;;;8.65;5.22;;;4.60;99.90;;;;;;5114014;28;20534;-87
2024/01/21 11:38:26;;;;;;;9.70;5.50;;;4.20;99.90;;;;;;5113920;28;20059;-86
2024/01/21 11:41:05;;;;;;;11.23;4.93;;;5.10;99.90;;;;;;5131099;27;20047;-86
2024/01/21 11:43:31;;;;;;;7.45;4.57;;;4.30;99.90;;;;;;5131128;27;20446;-85
2024/01/21 11:45:57;;;;;;;8.13;4.75;;;3.60;99.90;;;;;;5114949;28;20075;-85
2024/01/21 11:48:32;;;;;;;9.57;5.30;;;4.80;99.90;;;;;;5112417;27;20052;-84
2024/01/21 11:50:58;;;;;;;9.95;5.47;;;4.30;99.90;;;;;;5115292;28;20039;-85
2024/01/21 11:53:24;;;;;;;11.35;5.38;;;3.20;99.90;;;;;;5113540;28;20514;-86
2024/01/21 11:55:51;;;;;;;10.23;5.50;;;4.50;99.90;;;;;;5113461;28;20108;-86
2024/01/21 11:58:18;;;;;;;9.20;5.45;;;5.00;99.90;;;;;;5113864;28;20040;-86
2024/01/21 12:00:44;;;;;;;11.90;6.35;;;5.20;99.90;;;;;;5113575;28;20073;-85
2024/01/21 12:03:10;;;;;;;11.73;5.78;;;3.70;99.90;;;;;;5113129;28;20049;-85
2024/01/21 12:05:39;;;;;;;9.88;5.60;;;3.30;99.90;;;;;;5113229;28;20048;-85
2024/01/21 12:08:07;;;;;;;13.23;5.88;;;5.00;99.90;;;;;;5114645;28;20051;-85
2024/01/21 12:10:33;;;;;;;11.20;5.85;;;3.60;99.90;;;;;;5092920;28;20044;-86
2024/01/21 12:12:58;;;;;;;8.45;5.38;;;3.80;99.90;;;;;;5094243;28;20040;-85
2024/01/21 12:15:24;;;;;;;10.40;5.55;;;5.00;99.90;;;;;;5094165;28;20040;-86
2024/01/21 12:17:56;;;;;;;9.35;5.70;;;4.30;99.90;;;;;;5112298;28;20048;-86
2024/01/21 12:20:22;;;;;;;11.68;6.22;;;3.70;99.90;;;;;;5112544;28;20043;-85
2024/01/21 12:22:49;;;;;;;10.60;5.63;;;5.20;99.90;;;;;;5112432;27;20492;-85
2024/01/21 12:25:17;;;;;;;9.65;5.25;;;3.60;99.90;;;;;;5114385;27;20044;-85
2024/01/21 12:27:46;;;;;;;11.40;6.20;;;5.10;99.90;;;;;;5112203;28;20120;-85
2024/01/21 12:30:13;;;;;;;9.90;5.47;;;4.70;99.90;;;;;;5113035;28;20442;-85
2024/01/21 12:32:43;;;;;;;13.68;6.65;;;3.70;99.90;;;;;;5112697;28;20075;-85
2024/01/21 12:35:09;;;;;;;9.63;5.75;;;4.00;99.90;;;;;;5095963;28;20047;-86
2024/01/21 12:37:35;;;;;;;10.50;6.35;;;4.70;99.90;;;;;;5095304;28;20602;-86
2024/01/21 12:40:01;;;;;;;12.27;6.07;;;4.70;99.90;;;;;;5114173;28;20047;-85
2024/01/21 12:42:27;;;;;;;11.98;6.05;;;3.80;99.90;;;;;;5112171;28;20031;-85
2024/01/21 12:44:53;;;;;;;14.63;6.90;;;4.10;99.90;;;;;;5112442;28;20408;-85
2024/01/21 12:47:19;;;;;;;12.00;6.60;;;3.70;99.90;;;;;;5114129;28;20447;-85
2024/01/21 12:49:45;;;;;;;11.68;6.25;;;5.50;99.90;;;;;;5112094;28;20488;-85